sensor_id;sensor_type;location;lat;lon;timestamp;P1;durP1;ratioP1;P2;durP2;ratioP2
5923;SDS011;2987;50.884;14.818;2023-08-06T00:00:22;3.73;;;3.47;;
5923;SDS011;2987;50.884;14.818;2023-08-06T00:02:48;3.90;;;3.50;;
5923;SDS011;2987;50.884;14.818;2023-08-06T00:05:14;3.60;;;3.30;;
5923;SDS011;2987;50.884;14.818;2023-08-06T00:07:46;3.73;;;3.43;;
5923;SDS011;2987;50.884;14.818;2023-08-06T00:10:13;4.37;;;3.60;;
5923;SDS011;2987;50.884;14.818;2023-08-06T00:12:39;3.47;;;3.17;;
5923;SDS011;2987;50.884;14.818;2023-08-06T00:15:05;3.50;;;3.30;;
5923;SDS011;2987;50.884;14.818;2023-08-06T00:17:33;5.23;;;3.17;;
5923;SDS011;2987;50.884;14.818;2023-08-06T00:20:00;3.13;;;2.93;;
5923;SDS011;2987;50.884;14.818;2023-08-06T00:22:31;3.20;;;3.00;;
5923;SDS011;2987;50.884;14.818;2023-08-06T00:24:57;3.73;;;3.07;;
5923;SDS011;2987;50.884;14.818;2023-08-06T00:27:23;3.10;;;2.90;;
5923;SDS011;2987;50.884;14.818;2023-08-06T00:29:51;4.13;;;2.83;;
5923;SDS011;2987;50.884;14.818;2023-08-06T00:32:17;3.00;;;2.80;;
5923;SDS011;2987;50.884;14.818;2023-08-06T00:34:43;3.07;;;2.87;;
5923;SDS011;2987;50.884;14.818;2023-08-06T00:37:09;3.50;;;2.90;;
5923;SDS011;2987;50.884;14.818;2023-08-06T00:39:35;2.80;;;2.60;;
5923;SDS011;2987;50.884;14.818;2023-08-06T00:42:01;2.67;;;2.47;;
5923;SDS011;2987;50.884;14.818;2023-08-06T00:44:27;4.67;;;2.40;;
5923;SDS011;2987;50.884;14.818;2023-08-06T00:46:53;3.20;;;2.40;;
5923;SDS011;2987;50.884;14.818;2023-08-06T00:49:19;2.80;;;2.60;;
5923;SDS011;2987;50.884;14.818;2023-08-06T00:51:46;2.97;;;2.67;;
5923;SDS011;2987;50.884;14.818;2023-08-06T00:54:13;3.23;;;2.50;;
5923;SDS011;2987;50.884;14.818;2023-08-06T00:56:40;2.27;;;2.17;;
5923;SDS011;2987;50.884;14.818;2023-08-06T00:59:07;2.40;;;2.20;;
5923;SDS011;2987;50.884;14.818;2023-08-06T01:01:36;3.67;;;2.20;;
5923;SDS011;2987;50.884;14.818;2023-08-06T01:04:02;2.23;;;2.13;;
5923;SDS011;2987;50.884;14.818;2023-08-06T01:06:33;3.73;;;2.53;;
5923;SDS011;2987;50.884;14.818;2023-08-06T01:11:53;2.37;;;2.17;;
5923;SDS011;2987;50.884;14.818;2023-08-06T01:19:57;2.10;;;1.93;;
5923;SDS011;2987;50.884;14.818;2023-08-06T01:22:23;2.97;;;2.00;;
5923;SDS011;2987;50.884;14.818;2023-08-06T01:27:22;2.50;;;2.30;;
5923;SDS011;2987;50.884;14.818;2023-08-06T01:30:12;3.27;;;2.50;;
5923;SDS011;2987;50.884;14.818;2023-08-06T01:32:43;2.10;;;2.00;;
5923;SDS011;2987;50.884;14.818;2023-08-06T01:35:11;2.67;;;2.40;;
5923;SDS011;2987;50.884;14.818;2023-08-06T01:37:39;2.63;;;2.43;;
5923;SDS011;2987;50.884;14.818;2023-08-06T01:40:10;2.50;;;2.30;;
5923;SDS011;2987;50.884;14.818;2023-08-06T01:42:38;2.43;;;2.27;;
5923;SDS011;2987;50.884;14.818;2023-08-06T01:45:05;2.20;;;2.10;;
5923;SDS011;2987;50.884;14.818;2023-08-06T01:47:32;2.30;;;2.17;;
5923;SDS011;2987;50.884;14.818;2023-08-06T01:49:58;2.93;;;2.60;;
5923;SDS011;2987;50.884;14.818;2023-08-06T01:52:24;2.23;;;2.10;;
5923;SDS011;2987;50.884;14.818;2023-08-06T01:54:50;2.40;;;2.20;;
5923;SDS011;2987;50.884;14.818;2023-08-06T01:57:16;4.37;;;2.63;;
5923;SDS011;2987;50.884;14.818;2023-08-06T01:59:42;5.10;;;2.80;;
5923;SDS011;2987;50.884;14.818;2023-08-06T02:02:08;2.57;;;2.23;;
5923;SDS011;2987;50.884;14.818;2023-08-06T02:07:00;2.50;;;2.30;;
5923;SDS011;2987;50.884;14.818;2023-08-06T02:09:26;5.50;;;2.70;;
5923;SDS011;2987;50.884;14.818;2023-08-06T02:11:52;3.33;;;2.40;;
5923;SDS011;2987;50.884;14.818;2023-08-06T02:14:18;4.80;;;2.77;;
5923;SDS011;2987;50.884;14.818;2023-08-06T02:16:44;9.43;;;2.33;;
5923;SDS011;2987;50.884;14.818;2023-08-06T02:19:09;6.03;;;3.10;;
5923;SDS011;2987;50.884;14.818;2023-08-06T02:21:35;2.50;;;2.30;;
5923;SDS011;2987;50.884;14.818;2023-08-06T02:24:01;2.80;;;2.60;;
5923;SDS011;2987;50.884;14.818;2023-08-06T02:26:29;2.70;;;2.50;;
5923;SDS011;2987;50.884;14.818;2023-08-06T02:28:55;2.40;;;2.30;;
5923;SDS011;2987;50.884;14.818;2023-08-06T02:31:21;4.53;;;2.57;;
5923;SDS011;2987;50.884;14.818;2023-08-06T02:33:47;6.07;;;3.00;;
5923;SDS011;2987;50.884;14.818;2023-08-06T02:36:12;3.10;;;2.80;;
5923;SDS011;2987;50.884;14.818;2023-08-06T02:38:38;4.40;;;3.27;;
5923;SDS011;2987;50.884;14.818;2023-08-06T02:41:04;7.97;;;3.30;;
5923;SDS011;2987;50.884;14.818;2023-08-06T02:43:31;5.80;;;2.80;;
5923;SDS011;2987;50.884;14.818;2023-08-06T02:45:57;4.63;;;3.03;;
5923;SDS011;2987;50.884;14.818;2023-08-06T02:48:24;3.30;;;2.97;;
5923;SDS011;2987;50.884;14.818;2023-08-06T02:50:50;2.83;;;2.63;;
5923;SDS011;2987;50.884;14.818;2023-08-06T02:53:16;2.60;;;2.40;;
5923;SDS011;2987;50.884;14.818;2023-08-06T02:55:46;2.70;;;2.50;;
5923;SDS011;2987;50.884;14.818;2023-08-06T02:58:16;3.37;;;2.33;;
5923;SDS011;2987;50.884;14.818;2023-08-06T03:01:00;2.67;;;2.47;;
5923;SDS011;2987;50.884;14.818;2023-08-06T03:03:30;2.80;;;2.60;;
5923;SDS011;2987;50.884;14.818;2023-08-06T03:05:59;7.10;;;2.50;;
5923;SDS011;2987;50.884;14.818;2023-08-06T03:08:36;2.60;;;2.40;;
5923;SDS011;2987;50.884;14.818;2023-08-06T03:11:02;3.03;;;2.37;;
5923;SDS011;2987;50.884;14.818;2023-08-06T03:13:28;3.07;;;2.20;;
5923;SDS011;2987;50.884;14.818;2023-08-06T03:15:55;2.80;;;2.60;;
5923;SDS011;2987;50.884;14.818;2023-08-06T03:18:23;2.37;;;2.27;;
5923;SDS011;2987;50.884;14.818;2023-08-06T03:20:51;2.40;;;2.30;;
5923;SDS011;2987;50.884;14.818;2023-08-06T03:23:17;1.90;;;1.80;;
5923;SDS011;2987;50.884;14.818;2023-08-06T03:25:44;2.03;;;1.93;;
5923;SDS011;2987;50.884;14.818;2023-08-06T03:28:12;3.17;;;1.63;;
5923;SDS011;2987;50.884;14.818;2023-08-06T03:30:38;2.10;;;2.00;;
5923;SDS011;2987;50.884;14.818;2023-08-06T03:33:05;1.90;;;1.70;;
5923;SDS011;2987;50.884;14.818;2023-08-06T03:35:32;1.93;;;1.80;;
5923;SDS011;2987;50.884;14.818;2023-08-06T03:37:59;3.20;;;2.90;;
5923;SDS011;2987;50.884;14.818;2023-08-06T03:40:27;3.13;;;2.57;;
5923;SDS011;2987;50.884;14.818;2023-08-06T03:42:54;2.87;;;2.67;;
5923;SDS011;2987;50.884;14.818;2023-08-06T03:45:20;2.83;;;2.40;;
5923;SDS011;2987;50.884;14.818;2023-08-06T03:47:46;2.43;;;2.30;;
5923;SDS011;2987;50.884;14.818;2023-08-06T03:50:13;2.83;;;2.60;;
5923;SDS011;2987;50.884;14.818;2023-08-06T03:52:41;2.90;;;2.70;;
5923;SDS011;2987;50.884;14.818;2023-08-06T03:55:08;3.30;;;2.80;;
5923;SDS011;2987;50.884;14.818;2023-08-06T03:57:34;4.53;;;2.60;;
5923;SDS011;2987;50.884;14.818;2023-08-06T04:00:00;2.47;;;2.27;;
5923;SDS011;2987;50.884;14.818;2023-08-06T04:02:30;2.53;;;2.27;;
5923;SDS011;2987;50.884;14.818;2023-08-06T04:04:56;2.63;;;2.40;;
5923;SDS011;2987;50.884;14.818;2023-08-06T04:07:24;2.37;;;2.17;;
5923;SDS011;2987;50.884;14.818;2023-08-06T04:09:52;3.00;;;2.00;;
5923;SDS011;2987;50.884;14.818;2023-08-06T04:12:21;1.70;;;1.60;;
5923;SDS011;2987;50.884;14.818;2023-08-06T04:14:46;1.70;;;1.60;;
5923;SDS011;2987;50.884;14.818;2023-08-06T04:17:12;2.23;;;1.70;;
5923;SDS011;2987;50.884;14.818;2023-08-06T04:19:38;1.60;;;1.50;;
5923;SDS011;2987;50.884;14.818;2023-08-06T04:22:04;2.40;;;1.50;;
5923;SDS011;2987;50.884;14.818;2023-08-06T04:24:30;1.70;;;1.43;;
5923;SDS011;2987;50.884;14.818;2023-08-06T04:26:56;1.97;;;1.60;;
5923;SDS011;2987;50.884;14.818;2023-08-06T04:29:23;1.60;;;1.50;;
5923;SDS011;2987;50.884;14.818;2023-08-06T04:31:49;1.47;;;1.37;;
5923;SDS011;2987;50.884;14.818;2023-08-06T04:34:15;1.77;;;1.43;;
5923;SDS011;2987;50.884;14.818;2023-08-06T04:36:42;1.60;;;1.50;;
5923;SDS011;2987;50.884;14.818;2023-08-06T04:39:09;2.37;;;1.60;;
5923;SDS011;2987;50.884;14.818;2023-08-06T04:41:35;1.50;;;1.40;;
5923;SDS011;2987;50.884;14.818;2023-08-06T04:44:01;1.70;;;1.60;;
5923;SDS011;2987;50.884;14.818;2023-08-06T04:46:27;1.57;;;1.50;;
5923;SDS011;2987;50.884;14.818;2023-08-06T04:48:53;1.83;;;1.50;;
5923;SDS011;2987;50.884;14.818;2023-08-06T04:51:19;1.40;;;1.40;;
5923;SDS011;2987;50.884;14.818;2023-08-06T04:53:45;1.53;;;1.43;;
5923;SDS011;2987;50.884;14.818;2023-08-06T04:56:11;1.70;;;1.37;;
5923;SDS011;2987;50.884;14.818;2023-08-06T04:58:37;1.40;;;1.30;;
5923;SDS011;2987;50.884;14.818;2023-08-06T05:01:03;1.50;;;1.40;;
5923;SDS011;2987;50.884;14.818;2023-08-06T05:03:29;1.57;;;1.40;;
5923;SDS011;2987;50.884;14.818;2023-08-06T05:05:55;1.50;;;1.40;;
5923;SDS011;2987;50.884;14.818;2023-08-06T05:08:21;1.60;;;1.50;;
5923;SDS011;2987;50.884;14.818;2023-08-06T05:10:47;1.50;;;1.40;;
5923;SDS011;2987;50.884;14.818;2023-08-06T05:13:12;1.93;;;1.70;;
5923;SDS011;2987;50.884;14.818;2023-08-06T05:15:38;2.03;;;1.40;;
5923;SDS011;2987;50.884;14.818;2023-08-06T05:18:08;1.27;;;1.27;;
5923;SDS011;2987;50.884;14.818;2023-08-06T05:20:36;1.60;;;1.50;;
5923;SDS011;2987;50.884;14.818;2023-08-06T05:23:03;1.83;;;1.43;;
5923;SDS011;2987;50.884;14.818;2023-08-06T05:25:29;1.30;;;1.30;;
5923;SDS011;2987;50.884;14.818;2023-08-06T05:27:56;1.63;;;1.53;;
5923;SDS011;2987;50.884;14.818;2023-08-06T05:30:21;2.60;;;1.60;;
5923;SDS011;2987;50.884;14.818;2023-08-06T05:32:47;3.23;;;1.50;;
5923;SDS011;2987;50.884;14.818;2023-08-06T05:35:13;1.87;;;1.77;;
5923;SDS011;2987;50.884;14.818;2023-08-06T05:37:39;1.50;;;1.40;;
5923;SDS011;2987;50.884;14.818;2023-08-06T05:40:06;1.70;;;1.53;;
5923;SDS011;2987;50.884;14.818;2023-08-06T05:42:32;2.53;;;1.63;;
5923;SDS011;2987;50.884;14.818;2023-08-06T05:44:59;1.43;;;1.33;;
5923;SDS011;2987;50.884;14.818;2023-08-06T05:47:25;1.70;;;1.60;;
5923;SDS011;2987;50.884;14.818;2023-08-06T05:49:51;1.43;;;1.43;;
5923;SDS011;2987;50.884;14.818;2023-08-06T05:52:17;1.80;;;1.70;;
5923;SDS011;2987;50.884;14.818;2023-08-06T05:54:43;1.37;;;1.37;;
5923;SDS011;2987;50.884;14.818;2023-08-06T05:57:08;1.50;;;1.40;;
5923;SDS011;2987;50.884;14.818;2023-08-06T05:59:34;1.50;;;1.50;;
5923;SDS011;2987;50.884;14.818;2023-08-06T06:02:00;1.50;;;1.50;;
5923;SDS011;2987;50.884;14.818;2023-08-06T06:04:26;3.03;;;1.57;;
5923;SDS011;2987;50.884;14.818;2023-08-06T06:06:53;1.87;;;1.60;;
5923;SDS011;2987;50.884;14.818;2023-08-06T06:09:19;1.60;;;1.50;;
5923;SDS011;2987;50.884;14.818;2023-08-06T06:11:44;2.40;;;1.63;;
5923;SDS011;2987;50.884;14.818;2023-08-06T06:14:10;1.40;;;1.40;;
5923;SDS011;2987;50.884;14.818;2023-08-06T06:16:36;1.97;;;1.87;;
5923;SDS011;2987;50.884;14.818;2023-08-06T06:19:02;1.80;;;1.70;;
5923;SDS011;2987;50.884;14.818;2023-08-06T06:21:28;3.37;;;1.93;;
5923;SDS011;2987;50.884;14.818;2023-08-06T06:23:54;2.23;;;2.10;;
5923;SDS011;2987;50.884;14.818;2023-08-06T06:26:21;2.40;;;2.30;;
5923;SDS011;2987;50.884;14.818;2023-08-06T06:28:47;2.53;;;2.33;;
5923;SDS011;2987;50.884;14.818;2023-08-06T06:31:13;5.93;;;2.80;;
5923;SDS011;2987;50.884;14.818;2023-08-06T06:33:39;2.27;;;2.17;;
5923;SDS011;2987;50.884;14.818;2023-08-06T06:36:05;2.37;;;2.13;;
5923;SDS011;2987;50.884;14.818;2023-08-06T06:38:33;1.90;;;1.80;;
5923;SDS011;2987;50.884;14.818;2023-08-06T06:40:59;1.90;;;1.80;;
5923;SDS011;2987;50.884;14.818;2023-08-06T06:43:25;2.17;;;1.73;;
5923;SDS011;2987;50.884;14.818;2023-08-06T06:45:53;3.10;;;1.80;;
5923;SDS011;2987;50.884;14.818;2023-08-06T06:48:21;1.70;;;1.60;;
5923;SDS011;2987;50.884;14.818;2023-08-06T06:50:47;1.80;;;1.70;;
5923;SDS011;2987;50.884;14.818;2023-08-06T06:53:13;1.83;;;1.67;;
5923;SDS011;2987;50.884;14.818;2023-08-06T06:58:06;1.90;;;1.80;;
5923;SDS011;2987;50.884;14.818;2023-08-06T07:00:32;1.90;;;1.80;;
5923;SDS011;2987;50.884;14.818;2023-08-06T07:02:58;1.70;;;1.60;;
5923;SDS011;2987;50.884;14.818;2023-08-06T07:05:24;2.23;;;1.53;;
5923;SDS011;2987;50.884;14.818;2023-08-06T07:07:50;1.33;;;1.27;;
5923;SDS011;2987;50.884;14.818;2023-08-06T07:10:17;1.70;;;1.60;;
5923;SDS011;2987;50.884;14.818;2023-08-06T07:12:43;2.23;;;1.70;;
5923;SDS011;2987;50.884;14.818;2023-08-06T07:15:09;1.47;;;1.37;;
5923;SDS011;2987;50.884;14.818;2023-08-06T07:17:35;3.47;;;2.07;;
5923;SDS011;2987;50.884;14.818;2023-08-06T07:20:01;1.80;;;1.70;;
5923;SDS011;2987;50.884;14.818;2023-08-06T07:22:28;2.40;;;1.73;;
5923;SDS011;2987;50.884;14.818;2023-08-06T07:24:54;2.07;;;1.87;;
5923;SDS011;2987;50.884;14.818;2023-08-06T07:27:20;1.93;;;1.83;;
5923;SDS011;2987;50.884;14.818;2023-08-06T07:29:46;2.50;;;2.10;;
5923;SDS011;2987;50.884;14.818;2023-08-06T07:32:13;2.00;;;1.90;;
5923;SDS011;2987;50.884;14.818;2023-08-06T07:34:39;2.47;;;2.27;;
5923;SDS011;2987;50.884;14.818;2023-08-06T07:37:05;4.50;;;2.27;;
5923;SDS011;2987;50.884;14.818;2023-08-06T07:39:31;2.17;;;2.07;;
5923;SDS011;2987;50.884;14.818;2023-08-06T07:41:57;2.07;;;1.93;;
5923;SDS011;2987;50.884;14.818;2023-08-06T07:44:23;2.10;;;1.90;;
5923;SDS011;2987;50.884;14.818;2023-08-06T07:46:49;2.10;;;1.90;;
5923;SDS011;2987;50.884;14.818;2023-08-06T07:49:15;2.30;;;1.90;;
5923;SDS011;2987;50.884;14.818;2023-08-06T07:51:41;2.20;;;2.10;;
5923;SDS011;2987;50.884;14.818;2023-08-06T07:54:07;1.70;;;1.60;;
5923;SDS011;2987;50.884;14.818;2023-08-06T07:56:33;1.50;;;1.43;;
5923;SDS011;2987;50.884;14.818;2023-08-06T07:59:01;2.10;;;2.00;;
5923;SDS011;2987;50.884;14.818;2023-08-06T08:01:27;2.03;;;1.93;;
5923;SDS011;2987;50.884;14.818;2023-08-06T08:03:53;2.70;;;1.80;;
5923;SDS011;2987;50.884;14.818;2023-08-06T08:06:18;2.07;;;1.97;;
5923;SDS011;2987;50.884;14.818;2023-08-06T08:08:44;1.90;;;1.80;;
5923;SDS011;2987;50.884;14.818;2023-08-06T08:11:10;2.20;;;1.97;;
5923;SDS011;2987;50.884;14.818;2023-08-06T08:13:36;2.70;;;1.53;;
5923;SDS011;2987;50.884;14.818;2023-08-06T08:16:02;1.70;;;1.60;;
5923;SDS011;2987;50.884;14.818;2023-08-06T08:18:28;1.83;;;1.73;;
5923;SDS011;2987;50.884;14.818;2023-08-06T08:20:57;2.20;;;2.00;;
5923;SDS011;2987;50.884;14.818;2023-08-06T08:23:22;2.40;;;2.00;;
5923;SDS011;2987;50.884;14.818;2023-08-06T08:25:49;1.67;;;1.57;;
5923;SDS011;2987;50.884;14.818;2023-08-06T08:28:14;1.60;;;1.50;;
5923;SDS011;2987;50.884;14.818;2023-08-06T08:30:41;4.70;;;1.63;;
5923;SDS011;2987;50.884;14.818;2023-08-06T08:33:07;1.80;;;1.70;;
5923;SDS011;2987;50.884;14.818;2023-08-06T08:35:33;1.70;;;1.60;;
5923;SDS011;2987;50.884;14.818;2023-08-06T08:37:59;1.70;;;1.63;;
5923;SDS011;2987;50.884;14.818;2023-08-06T08:40:27;1.60;;;1.50;;
5923;SDS011;2987;50.884;14.818;2023-08-06T08:42:57;1.90;;;1.80;;
5923;SDS011;2987;50.884;14.818;2023-08-06T08:45:26;2.00;;;1.90;;
5923;SDS011;2987;50.884;14.818;2023-08-06T08:47:54;2.83;;;2.40;;
5923;SDS011;2987;50.884;14.818;2023-08-06T08:50:20;3.57;;;2.10;;
5923;SDS011;2987;50.884;14.818;2023-08-06T08:52:47;2.33;;;1.67;;
5923;SDS011;2987;50.884;14.818;2023-08-06T08:55:16;2.20;;;2.10;;
5923;SDS011;2987;50.884;14.818;2023-08-06T09:00:09;1.90;;;1.80;;
5923;SDS011;2987;50.884;14.818;2023-08-06T09:02:35;2.20;;;2.03;;
5923;SDS011;2987;50.884;14.818;2023-08-06T09:05:03;2.00;;;1.90;;
5923;SDS011;2987;50.884;14.818;2023-08-06T09:07:32;1.90;;;1.80;;
5923;SDS011;2987;50.884;14.818;2023-08-06T09:10:01;2.10;;;1.90;;
5923;SDS011;2987;50.884;14.818;2023-08-06T09:12:30;2.17;;;2.07;;
5923;SDS011;2987;50.884;14.818;2023-08-06T09:14:56;2.40;;;1.77;;
5923;SDS011;2987;50.884;14.818;2023-08-06T09:17:22;2.40;;;2.20;;
5923;SDS011;2987;50.884;14.818;2023-08-06T09:19:48;2.27;;;2.17;;
5923;SDS011;2987;50.884;14.818;2023-08-06T09:22:15;2.80;;;2.60;;
5923;SDS011;2987;50.884;14.818;2023-08-06T09:24:41;3.10;;;2.90;;
5923;SDS011;2987;50.884;14.818;2023-08-06T09:27:11;2.80;;;2.60;;
5923;SDS011;2987;50.884;14.818;2023-08-06T09:29:40;3.00;;;2.80;;
5923;SDS011;2987;50.884;14.818;2023-08-06T09:32:07;2.90;;;2.70;;
5923;SDS011;2987;50.884;14.818;2023-08-06T09:34:33;3.43;;;3.17;;
5923;SDS011;2987;50.884;14.818;2023-08-06T09:36:59;3.40;;;3.10;;
5923;SDS011;2987;50.884;14.818;2023-08-06T09:39:27;3.60;;;3.30;;
5923;SDS011;2987;50.884;14.818;2023-08-06T09:41:58;3.37;;;3.10;;
5923;SDS011;2987;50.884;14.818;2023-08-06T09:44:26;3.83;;;3.50;;
5923;SDS011;2987;50.884;14.818;2023-08-06T09:46:54;3.70;;;3.40;;
5923;SDS011;2987;50.884;14.818;2023-08-06T09:49:25;3.30;;;3.10;;
5923;SDS011;2987;50.884;14.818;2023-08-06T09:51:53;3.60;;;3.30;;
5923;SDS011;2987;50.884;14.818;2023-08-06T09:54:23;3.80;;;3.20;;
5923;SDS011;2987;50.884;14.818;2023-08-06T09:56:52;4.07;;;3.47;;
5923;SDS011;2987;50.884;14.818;2023-08-06T09:59:18;3.40;;;3.10;;
5923;SDS011;2987;50.884;14.818;2023-08-06T10:01:45;3.70;;;3.40;;
5923;SDS011;2987;50.884;14.818;2023-08-06T10:04:13;4.90;;;3.37;;
5923;SDS011;2987;50.884;14.818;2023-08-06T10:06:41;3.13;;;2.87;;
5923;SDS011;2987;50.884;14.818;2023-08-06T10:09:09;3.30;;;3.10;;
5923;SDS011;2987;50.884;14.818;2023-08-06T10:11:36;3.53;;;3.23;;
5923;SDS011;2987;50.884;14.818;2023-08-06T10:14:05;3.97;;;3.50;;
5923;SDS011;2987;50.884;14.818;2023-08-06T10:16:35;3.80;;;3.50;;
5923;SDS011;2987;50.884;14.818;2023-08-06T10:19:03;3.90;;;3.40;;
5923;SDS011;2987;50.884;14.818;2023-08-06T10:21:31;3.80;;;3.20;;
5923;SDS011;2987;50.884;14.818;2023-08-06T10:23:57;4.17;;;3.00;;
5923;SDS011;2987;50.884;14.818;2023-08-06T10:26:25;4.40;;;3.33;;
5923;SDS011;2987;50.884;14.818;2023-08-06T10:28:53;3.50;;;3.27;;
5923;SDS011;2987;50.884;14.818;2023-08-06T10:31:19;3.33;;;3.03;;
5923;SDS011;2987;50.884;14.818;2023-08-06T10:33:46;3.60;;;3.30;;
5923;SDS011;2987;50.884;14.818;2023-08-06T10:36:14;4.30;;;3.90;;
5923;SDS011;2987;50.884;14.818;2023-08-06T10:38:48;3.30;;;3.10;;
5923;SDS011;2987;50.884;14.818;2023-08-06T10:41:18;3.30;;;3.03;;
5923;SDS011;2987;50.884;14.818;2023-08-06T10:43:44;3.40;;;3.20;;
5923;SDS011;2987;50.884;14.818;2023-08-06T10:46:21;7.83;;;3.63;;
5923;SDS011;2987;50.884;14.818;2023-08-06T10:48:49;3.90;;;3.60;;
5923;SDS011;2987;50.884;14.818;2023-08-06T10:53:42;3.77;;;3.47;;
5923;SDS011;2987;50.884;14.818;2023-08-06T10:56:12;3.63;;;3.40;;
5923;SDS011;2987;50.884;14.818;2023-08-06T10:58:40;4.40;;;4.10;;
5923;SDS011;2987;50.884;14.818;2023-08-06T11:01:06;4.53;;;3.80;;
5923;SDS011;2987;50.884;14.818;2023-08-06T11:03:33;3.60;;;3.30;;
5923;SDS011;2987;50.884;14.818;2023-08-06T11:06:00;4.27;;;3.87;;
5923;SDS011;2987;50.884;14.818;2023-08-06T11:08:27;4.10;;;3.80;;
5923;SDS011;2987;50.884;14.818;2023-08-06T11:10:55;4.30;;;3.50;;
5923;SDS011;2987;50.884;14.818;2023-08-06T11:13:32;4.27;;;3.90;;
5923;SDS011;2987;50.884;14.818;2023-08-06T11:15:58;4.93;;;3.77;;
5923;SDS011;2987;50.884;14.818;2023-08-06T11:18:24;4.70;;;3.80;;
5923;SDS011;2987;50.884;14.818;2023-08-06T11:20:50;5.90;;;3.83;;
5923;SDS011;2987;50.884;14.818;2023-08-06T11:23:17;4.00;;;3.70;;
5923;SDS011;2987;50.884;14.818;2023-08-06T11:25:44;4.50;;;4.20;;
5923;SDS011;2987;50.884;14.818;2023-08-06T11:28:11;4.07;;;3.80;;
5923;SDS011;2987;50.884;14.818;2023-08-06T11:30:38;4.30;;;3.90;;
5923;SDS011;2987;50.884;14.818;2023-08-06T11:33:06;4.17;;;3.80;;
5923;SDS011;2987;50.884;14.818;2023-08-06T11:35:36;3.87;;;3.57;;
5923;SDS011;2987;50.884;14.818;2023-08-06T11:38:03;3.83;;;3.53;;
5923;SDS011;2987;50.884;14.818;2023-08-06T11:40:29;4.00;;;3.70;;
5923;SDS011;2987;50.884;14.818;2023-08-06T11:42:57;4.40;;;3.80;;
5923;SDS011;2987;50.884;14.818;2023-08-06T11:45:24;4.30;;;3.90;;
5923;SDS011;2987;50.884;14.818;2023-08-06T11:47:51;4.03;;;3.73;;
5923;SDS011;2987;50.884;14.818;2023-08-06T11:50:22;3.90;;;3.60;;
5923;SDS011;2987;50.884;14.818;2023-08-06T11:52:52;3.67;;;3.37;;
5923;SDS011;2987;50.884;14.818;2023-08-06T11:55:23;3.70;;;3.37;;
5923;SDS011;2987;50.884;14.818;2023-08-06T11:57:50;3.10;;;2.90;;
5923;SDS011;2987;50.884;14.818;2023-08-06T12:00:16;3.10;;;2.90;;
5923;SDS011;2987;50.884;14.818;2023-08-06T12:02:44;3.23;;;3.03;;
5923;SDS011;2987;50.884;14.818;2023-08-06T12:05:13;3.40;;;3.10;;
5923;SDS011;2987;50.884;14.818;2023-08-06T12:07:48;3.10;;;2.90;;
5923;SDS011;2987;50.884;14.818;2023-08-06T12:10:16;3.07;;;2.87;;
5923;SDS011;2987;50.884;14.818;2023-08-06T12:12:45;4.73;;;2.90;;
5923;SDS011;2987;50.884;14.818;2023-08-06T12:15:11;3.13;;;2.93;;
5923;SDS011;2987;50.884;14.818;2023-08-06T12:17:37;4.10;;;3.30;;
5923;SDS011;2987;50.884;14.818;2023-08-06T12:20:05;3.87;;;3.07;;
5923;SDS011;2987;50.884;14.818;2023-08-06T12:22:32;3.43;;;3.00;;
5923;SDS011;2987;50.884;14.818;2023-08-06T12:25:02;3.60;;;3.40;;
5923;SDS011;2987;50.884;14.818;2023-08-06T12:27:29;3.43;;;3.13;;
5923;SDS011;2987;50.884;14.818;2023-08-06T12:29:55;3.03;;;2.83;;
5923;SDS011;2987;50.884;14.818;2023-08-06T12:32:21;4.00;;;3.60;;
5923;SDS011;2987;50.884;14.818;2023-08-06T12:34:49;3.87;;;3.57;;
5923;SDS011;2987;50.884;14.818;2023-08-06T12:37:15;3.47;;;3.17;;
5923;SDS011;2987;50.884;14.818;2023-08-06T12:39:41;3.97;;;3.63;;
5923;SDS011;2987;50.884;14.818;2023-08-06T12:42:07;3.50;;;3.20;;
5923;SDS011;2987;50.884;14.818;2023-08-06T12:44:33;3.37;;;3.17;;
5923;SDS011;2987;50.884;14.818;2023-08-06T12:47:00;4.10;;;3.70;;
5923;SDS011;2987;50.884;14.818;2023-08-06T12:49:26;5.20;;;4.70;;
5923;SDS011;2987;50.884;14.818;2023-08-06T12:51:53;4.30;;;3.90;;
5923;SDS011;2987;50.884;14.818;2023-08-06T12:54:20;6.50;;;3.67;;
5923;SDS011;2987;50.884;14.818;2023-08-06T12:56:46;4.40;;;3.57;;
5923;SDS011;2987;50.884;14.818;2023-08-06T12:59:14;3.83;;;3.17;;
5923;SDS011;2987;50.884;14.818;2023-08-06T13:01:41;5.27;;;3.37;;
5923;SDS011;2987;50.884;14.818;2023-08-06T13:04:07;3.60;;;3.30;;
5923;SDS011;2987;50.884;14.818;2023-08-06T13:06:34;3.13;;;2.90;;
5923;SDS011;2987;50.884;14.818;2023-08-06T13:09:03;3.30;;;3.00;;
5923;SDS011;2987;50.884;14.818;2023-08-06T13:11:30;3.67;;;3.43;;
5923;SDS011;2987;50.884;14.818;2023-08-06T13:14:03;4.10;;;3.60;;
5923;SDS011;2987;50.884;14.818;2023-08-06T13:16:31;3.50;;;3.20;;
5923;SDS011;2987;50.884;14.818;2023-08-06T13:18:57;5.27;;;3.97;;
5923;SDS011;2987;50.884;14.818;2023-08-06T13:21:23;4.27;;;3.97;;
5923;SDS011;2987;50.884;14.818;2023-08-06T13:23:49;5.10;;;4.47;;
5923;SDS011;2987;50.884;14.818;2023-08-06T13:26:15;4.50;;;4.07;;
5923;SDS011;2987;50.884;14.818;2023-08-06T13:28:43;3.90;;;3.60;;
5923;SDS011;2987;50.884;14.818;2023-08-06T13:31:09;4.53;;;4.23;;
5923;SDS011;2987;50.884;14.818;2023-08-06T13:33:35;4.53;;;4.13;;
5923;SDS011;2987;50.884;14.818;2023-08-06T13:36:01;4.33;;;4.03;;
5923;SDS011;2987;50.884;14.818;2023-08-06T13:38:27;4.20;;;3.90;;
5923;SDS011;2987;50.884;14.818;2023-08-06T13:40:53;4.50;;;4.03;;
5923;SDS011;2987;50.884;14.818;2023-08-06T13:43:19;4.23;;;3.93;;
5923;SDS011;2987;50.884;14.818;2023-08-06T13:45:45;4.60;;;4.20;;
5923;SDS011;2987;50.884;14.818;2023-08-06T13:48:11;4.93;;;4.53;;
5923;SDS011;2987;50.884;14.818;2023-08-06T13:50:37;4.53;;;4.23;;
5923;SDS011;2987;50.884;14.818;2023-08-06T13:53:03;4.27;;;3.97;;
5923;SDS011;2987;50.884;14.818;2023-08-06T13:55:29;7.03;;;4.77;;
5923;SDS011;2987;50.884;14.818;2023-08-06T13:57:55;4.70;;;4.40;;
5923;SDS011;2987;50.884;14.818;2023-08-06T14:00:21;5.00;;;4.67;;
5923;SDS011;2987;50.884;14.818;2023-08-06T14:02:47;5.50;;;5.00;;
5923;SDS011;2987;50.884;14.818;2023-08-06T14:05:13;5.30;;;4.90;;
5923;SDS011;2987;50.884;14.818;2023-08-06T14:07:39;5.40;;;4.97;;
5923;SDS011;2987;50.884;14.818;2023-08-06T14:12:31;5.37;;;4.93;;
5923;SDS011;2987;50.884;14.818;2023-08-06T14:14:57;5.57;;;5.07;;
5923;SDS011;2987;50.884;14.818;2023-08-06T14:17:24;5.43;;;4.90;;
5923;SDS011;2987;50.884;14.818;2023-08-06T14:19:50;5.70;;;5.20;;
5923;SDS011;2987;50.884;14.818;2023-08-06T14:22:16;6.17;;;4.87;;
5923;SDS011;2987;50.884;14.818;2023-08-06T14:24:42;14.13;;;5.23;;
5923;SDS011;2987;50.884;14.818;2023-08-06T14:27:08;4.93;;;4.53;;
5923;SDS011;2987;50.884;14.818;2023-08-06T14:29:34;7.47;;;4.70;;
5923;SDS011;2987;50.884;14.818;2023-08-06T14:32:00;5.03;;;4.60;;
5923;SDS011;2987;50.884;14.818;2023-08-06T14:34:26;4.80;;;4.40;;
5923;SDS011;2987;50.884;14.818;2023-08-06T14:36:53;5.47;;;4.90;;
5923;SDS011;2987;50.884;14.818;2023-08-06T14:39:19;5.53;;;5.13;;
5923;SDS011;2987;50.884;14.818;2023-08-06T14:41:45;5.13;;;4.83;;
5923;SDS011;2987;50.884;14.818;2023-08-06T14:44:11;5.87;;;5.37;;
5923;SDS011;2987;50.884;14.818;2023-08-06T14:46:37;4.77;;;4.37;;
5923;SDS011;2987;50.884;14.818;2023-08-06T14:49:03;5.30;;;4.90;;
5923;SDS011;2987;50.884;14.818;2023-08-06T14:51:29;5.83;;;5.33;;
5923;SDS011;2987;50.884;14.818;2023-08-06T14:53:55;5.17;;;4.77;;
5923;SDS011;2987;50.884;14.818;2023-08-06T14:56:21;5.10;;;4.60;;
5923;SDS011;2987;50.884;14.818;2023-08-06T14:58:46;5.10;;;4.63;;
5923;SDS011;2987;50.884;14.818;2023-08-06T15:01:13;4.40;;;4.00;;
5923;SDS011;2987;50.884;14.818;2023-08-06T15:03:39;4.33;;;4.03;;
5923;SDS011;2987;50.884;14.818;2023-08-06T15:06:05;4.90;;;4.40;;
5923;SDS011;2987;50.884;14.818;2023-08-06T15:08:31;4.73;;;4.33;;
5923;SDS011;2987;50.884;14.818;2023-08-06T15:10:57;4.37;;;4.07;;
5923;SDS011;2987;50.884;14.818;2023-08-06T15:13:23;5.20;;;4.60;;
5923;SDS011;2987;50.884;14.818;2023-08-06T15:15:49;4.47;;;4.03;;
5923;SDS011;2987;50.884;14.818;2023-08-06T15:18:15;4.33;;;4.03;;
5923;SDS011;2987;50.884;14.818;2023-08-06T15:20:42;4.33;;;4.03;;